createdAt,value
2018-05-14T00:01:50.479Z,6.80
2018-05-14T00:04:16.465Z,6.77
2018-05-14T00:06:42.489Z,7.30
2018-05-14T00:09:12.259Z,7.63
2018-05-14T00:11:38.209Z,7.93
2018-05-14T00:14:04.244Z,7.67
2018-05-14T00:16:30.219Z,8.20
2018-05-14T00:18:56.915Z,8.17
2018-05-14T00:21:22.895Z,8.13
2018-05-14T00:23:48.866Z,9.60
2018-05-14T00:26:14.900Z,6.60
2018-05-14T00:28:40.867Z,8.57
2018-05-14T00:31:06.878Z,8.07
2018-05-14T00:33:32.903Z,11.33
2018-05-14T00:35:58.857Z,8.63
2018-05-14T00:38:24.829Z,8.27
2018-05-14T00:40:50.839Z,6.87
2018-05-14T00:43:16.804Z,8.20
2018-05-14T00:45:42.793Z,7.80
2018-05-14T00:48:08.740Z,8.37
2018-05-14T00:50:34.723Z,11.17
2018-05-14T00:53:01.421Z,8.20
2018-05-14T00:55:27.431Z,8.50
2018-05-14T00:57:54.123Z,7.57
2018-05-14T01:00:20.105Z,8.10
2018-05-14T01:02:46.067Z,8.80
2018-05-14T01:05:12.047Z,7.40
2018-05-14T01:07:38.033Z,8.73
2018-05-14T01:10:04.725Z,7.37
2018-05-14T01:12:30.715Z,8.10
2018-05-14T01:14:57.440Z,8.27
2018-05-14T01:17:23.394Z,11.63
2018-05-14T01:19:50.119Z,9.27
2018-05-14T01:22:16.085Z,7.90
2018-05-14T01:24:55.982Z,7.70
2018-05-14T01:27:21.934Z,8.37
2018-05-14T01:29:47.904Z,9.33
2018-05-14T01:32:13.911Z,8.60
2018-05-14T01:34:39.873Z,8.37
2018-05-14T01:37:05.872Z,8.10
2018-05-14T01:39:32.435Z,8.20
2018-05-14T01:41:58.432Z,7.30
2018-05-14T01:44:24.443Z,9.23
2018-05-14T01:46:51.144Z,8.90
2018-05-14T01:49:17.094Z,8.73
2018-05-14T01:51:43.067Z,8.90
2018-05-14T01:54:09.006Z,8.90
2018-05-14T01:56:35.739Z,8.33
2018-05-14T01:59:01.683Z,8.03
2018-05-14T02:01:27.707Z,7.87
2018-05-14T02:03:54.589Z,8.23
2018-05-14T02:06:20.463Z,8.53
2018-05-14T02:08:46.587Z,8.77
2018-05-14T02:11:12.584Z,9.53
2018-05-14T02:13:38.531Z,10.23
2018-05-14T02:16:05.250Z,8.90
2018-05-14T02:18:31.247Z,7.50
2018-05-14T02:20:57.228Z,8.70
2018-05-14T02:23:23.214Z,8.50
2018-05-14T02:25:49.167Z,8.83
2018-05-14T02:28:15.143Z,8.53
2018-05-14T02:30:41.883Z,11.00
2018-05-14T02:33:07.835Z,8.47
2018-05-14T02:35:33.800Z,9.70
2018-05-14T02:38:00.515Z,9.37
2018-05-14T02:40:26.474Z,8.90
2018-05-14T02:42:59.362Z,7.90
2018-05-14T02:45:25.323Z,9.10
2018-05-14T02:47:52.044Z,8.17
2018-05-14T02:50:18.027Z,10.83
2018-05-14T02:52:44.024Z,9.10
2018-05-14T02:55:09.975Z,8.10
2018-05-14T02:57:36.668Z,9.10
2018-05-14T03:00:02.695Z,12.87
2018-05-14T03:02:28.650Z,10.43
2018-05-14T03:04:54.691Z,10.07
2018-05-14T03:07:21.341Z,9.47
2018-05-14T03:09:47.411Z,10.23
2018-05-14T03:12:13.355Z,11.20
2018-05-14T03:14:40.075Z,9.93
2018-05-14T03:17:06.114Z,8.93
2018-05-14T03:19:32.778Z,10.87
2018-05-14T03:21:58.762Z,11.70
2018-05-14T03:24:24.706Z,9.73
2018-05-14T03:26:50.655Z,9.60
2018-05-14T03:29:16.701Z,9.53
2018-05-14T03:31:42.654Z,10.30
2018-05-14T03:34:08.695Z,8.77
2018-05-14T03:36:34.643Z,8.67
2018-05-14T03:39:00.615Z,9.50
2018-05-14T03:41:26.607Z,9.77
2018-05-14T03:43:52.551Z,10.17
2018-05-14T03:46:18.569Z,9.43
2018-05-14T03:48:44.534Z,9.00
2018-05-14T03:51:11.263Z,10.30
2018-05-14T03:53:37.256Z,9.43
2018-05-14T03:56:03.214Z,10.60
2018-05-14T03:58:41.699Z,10.17
2018-05-14T04:01:12.274Z,9.50
2018-05-14T04:03:50.530Z,9.27
2018-05-14T04:06:29.041Z,9.37
2018-05-14T04:08:55.015Z,10.93
2018-05-14T04:11:20.970Z,10.20
2018-05-14T04:13:47.023Z,10.70
2018-05-14T04:16:13.005Z,9.97
2018-05-14T04:18:38.984Z,9.10
2018-05-14T04:21:05.711Z,11.47
2018-05-14T04:23:31.658Z,9.63
2018-05-14T04:25:58.398Z,10.13
2018-05-14T04:28:24.379Z,10.73
2018-05-14T04:30:50.335Z,10.87
2018-05-14T04:33:16.351Z,11.27
2018-05-14T04:35:42.344Z,10.97
2018-05-14T04:38:08.302Z,10.83
2018-05-14T04:40:35.035Z,11.83
2018-05-14T04:43:00.979Z,9.67
2018-05-14T04:45:27.723Z,9.77
2018-05-14T04:47:53.676Z,14.07
2018-05-14T04:50:20.399Z,11.03
2018-05-14T04:52:46.380Z,11.77
2018-05-14T04:55:12.323Z,17.43
2018-05-14T04:57:38.299Z,14.33
2018-05-14T05:00:04.286Z,14.20
2018-05-14T05:02:30.269Z,13.80
2018-05-14T05:04:56.300Z,14.97
2018-05-14T05:07:22.285Z,12.87
2018-05-14T05:09:49.159Z,13.43
2018-05-14T05:12:15.151Z,13.27
2018-05-14T05:14:42.640Z,12.33
2018-05-14T05:17:09.420Z,14.50
2018-05-14T05:19:35.358Z,12.80
2018-05-14T05:22:01.340Z,11.67
2018-05-14T05:24:27.346Z,14.07
2018-05-14T05:26:53.343Z,14.23
2018-05-14T05:29:20.032Z,16.87
2018-05-14T05:31:46.067Z,16.47
2018-05-14T05:34:12.015Z,15.13
2018-05-14T05:36:37.974Z,17.53
2018-05-14T05:39:03.958Z,26.10
2018-05-14T05:41:29.908Z,23.00
2018-05-14T05:43:55.863Z,28.53
2018-05-14T05:46:21.831Z,25.53
2018-05-14T05:48:47.852Z,27.83
2018-05-14T05:51:13.811Z,26.47
2018-05-14T05:53:40.549Z,18.50
2018-05-14T05:56:06.545Z,18.50
2018-05-14T05:58:32.508Z,19.60
2018-05-14T06:00:58.451Z,14.80
2018-05-14T06:03:24.439Z,13.60
2018-05-14T06:05:50.427Z,12.90
2018-05-14T06:08:16.453Z,14.20
2018-05-14T06:10:42.408Z,11.77
2018-05-14T06:13:08.407Z,15.07
2018-05-14T06:15:34.430Z,13.87
2018-05-14T06:18:00.431Z,14.83
2018-05-14T06:20:27.187Z,11.73
2018-05-14T06:22:53.870Z,17.03
2018-05-14T06:25:19.858Z,11.13
2018-05-14T06:27:45.869Z,18.33
2018-05-14T06:30:11.842Z,14.17
2018-05-14T06:32:38.534Z,9.60
2018-05-14T06:35:04.503Z,10.37
2018-05-14T06:37:30.504Z,16.13
2018-05-14T06:39:56.723Z,10.27
2018-05-14T06:42:22.463Z,11.63
2018-05-14T06:44:48.443Z,12.50
2018-05-14T06:47:14.410Z,11.17
2018-05-14T06:49:41.151Z,14.83
2018-05-14T06:52:07.095Z,12.90
2018-05-14T06:54:33.059Z,14.30
2018-05-14T06:56:59.079Z,21.13
2018-05-14T06:59:25.818Z,14.20
2018-05-14T07:01:52.566Z,14.93
2018-05-14T07:04:18.511Z,12.80
2018-05-14T07:06:44.491Z,12.20
2018-05-14T07:09:10.474Z,10.27
2018-05-14T07:11:36.452Z,12.60
2018-05-14T07:14:02.463Z,9.93
2018-05-14T07:16:29.177Z,9.53
2018-05-14T07:18:55.171Z,14.70
2018-05-14T07:21:21.175Z,11.83
2018-05-14T07:23:47.179Z,15.37
2018-05-14T07:26:13.159Z,10.80
2018-05-14T07:28:39.882Z,11.43
2018-05-14T07:31:05.833Z,9.53
2018-05-14T07:33:31.819Z,8.27
2018-05-14T07:35:57.798Z,14.27
2018-05-14T07:38:23.786Z,11.53
2018-05-14T07:40:49.739Z,9.90
2018-05-14T07:43:15.710Z,8.27
2018-05-14T07:45:41.707Z,9.37
2018-05-14T07:48:07.678Z,10.70
2018-05-14T07:50:33.655Z,9.53
2018-05-14T07:53:00.351Z,12.97
2018-05-14T07:55:26.392Z,10.27
2018-05-14T07:57:52.352Z,11.03
2018-05-14T08:00:18.413Z,7.50
2018-05-14T08:02:44.310Z,7.80
2018-05-14T08:05:10.299Z,12.93
2018-05-14T08:07:36.298Z,7.60
2018-05-14T08:10:02.238Z,7.53
2018-05-14T08:12:28.211Z,7.30
2018-05-14T08:14:54.198Z,8.33
2018-05-14T08:17:20.143Z,9.53
2018-05-14T08:19:46.151Z,10.40
2018-05-14T08:22:12.141Z,9.60
2018-05-14T08:24:38.131Z,11.47
2018-05-14T08:27:04.078Z,8.90
2018-05-14T08:29:30.090Z,8.53
2018-05-14T08:31:56.079Z,8.57
2018-05-14T08:34:22.818Z,9.90
2018-05-14T08:36:48.803Z,10.20
2018-05-14T08:39:14.754Z,10.17
2018-05-14T08:41:40.745Z,8.13
2018-05-14T08:44:07.440Z,10.27
2018-05-14T08:46:33.451Z,10.63
2018-05-14T08:48:59.415Z,9.83
2018-05-14T08:51:25.422Z,6.80
2018-05-14T08:53:51.404Z,7.50
2018-05-14T08:56:17.357Z,8.37
2018-05-14T08:58:43.495Z,7.83
2018-05-14T09:01:09.458Z,7.17
2018-05-14T09:03:36.154Z,11.47
2018-05-14T09:06:02.149Z,5.57
2018-05-14T09:08:28.106Z,6.80
2018-05-14T09:10:54.092Z,9.13
2018-05-14T09:13:20.034Z,9.17
2018-05-14T09:15:46.827Z,6.47
2018-05-14T09:18:12.779Z,8.97
2018-05-14T09:20:38.762Z,6.87
2018-05-14T09:23:05.457Z,6.73
2018-05-14T09:25:31.455Z,5.30
2018-05-14T09:27:57.382Z,5.57
2018-05-14T09:30:24.123Z,6.80
2018-05-14T09:32:50.109Z,10.13
2018-05-14T09:35:16.093Z,9.23
2018-05-14T09:37:42.092Z,7.70
2018-05-14T09:40:08.051Z,7.30
2018-05-14T09:42:34.008Z,6.33
2018-05-14T09:44:59.981Z,13.17
2018-05-14T09:47:25.971Z,5.87
2018-05-14T09:49:51.967Z,10.50
2018-05-14T09:52:17.982Z,11.43
2018-05-14T09:54:43.971Z,4.50
2018-05-14T09:57:09.953Z,9.43
2018-05-14T09:59:36.703Z,4.83
2018-05-14T10:02:02.647Z,10.93
2018-05-14T10:04:28.613Z,11.40
2018-05-14T10:06:54.608Z,7.33
2018-05-14T10:09:21.327Z,9.83
2018-05-14T10:11:47.350Z,8.13
2018-05-14T10:14:13.326Z,4.87
2018-05-14T10:16:40.032Z,7.17
2018-05-14T10:19:06.024Z,7.63
2018-05-14T10:21:31.987Z,7.00
2018-05-14T10:23:58.066Z,7.73
2018-05-14T10:26:24.003Z,6.17
2018-05-14T10:28:49.995Z,5.30
2018-05-14T10:31:15.985Z,5.30
2018-05-14T10:33:41.975Z,7.70
2018-05-14T10:36:07.955Z,6.83
2018-05-14T10:38:33.906Z,6.53
2018-05-14T10:40:59.892Z,5.43
2018-05-14T10:43:26.631Z,6.60
2018-05-14T10:45:52.615Z,5.80
2018-05-14T10:48:18.622Z,7.37
2018-05-14T10:50:45.363Z,10.77
2018-05-14T10:53:11.315Z,9.30
2018-05-14T10:55:38.022Z,8.30
2018-05-14T10:58:04.016Z,7.47
2018-05-14T11:00:29.978Z,5.03
2018-05-14T11:02:55.979Z,4.37
2018-05-14T11:05:21.940Z,4.33
2018-05-14T11:07:47.899Z,4.13
2018-05-14T11:10:13.887Z,4.50
2018-05-14T11:12:40.623Z,7.97
2018-05-14T11:15:06.627Z,6.40
2018-05-14T11:17:32.618Z,4.67
2018-05-14T11:19:59.327Z,8.00
2018-05-14T11:22:25.295Z,5.73
2018-05-14T11:24:52.016Z,5.60
2018-05-14T11:27:18.031Z,12.57
2018-05-14T11:29:44.015Z,4.97
2018-05-14T11:32:10.727Z,5.87
2018-05-14T11:34:36.735Z,7.03
2018-05-14T11:37:02.692Z,5.60
2018-05-14T11:39:28.711Z,6.83
2018-05-14T11:41:54.678Z,9.03
2018-05-14T11:44:20.646Z,7.60
2018-05-14T11:46:47.347Z,6.00
2018-05-14T11:49:13.300Z,9.37
2018-05-14T11:51:40.041Z,11.80
2018-05-14T11:54:06.026Z,6.20
2018-05-14T11:56:32.747Z,11.17
2018-05-14T11:58:58.735Z,6.60
2018-05-14T12:01:24.726Z,6.43
2018-05-14T12:03:50.692Z,7.10
2018-05-14T12:06:16.671Z,6.13
2018-05-14T12:08:42.707Z,5.97
2018-05-14T12:11:08.663Z,6.33
2018-05-14T12:13:34.667Z,5.17
2018-05-14T12:16:00.788Z,6.27
2018-05-14T12:18:26.715Z,8.87
2018-05-14T12:20:53.422Z,4.93
2018-05-14T12:23:19.415Z,6.07
2018-05-14T12:25:45.363Z,7.40
2018-05-14T12:28:11.440Z,5.40
2018-05-14T12:30:38.094Z,5.07
2018-05-14T12:33:04.089Z,8.33
2018-05-14T12:35:30.063Z,4.90
2018-05-14T12:37:56.027Z,5.63
2018-05-14T12:40:22.761Z,6.83
2018-05-14T12:42:50.758Z,7.10
2018-05-14T12:45:18.540Z,5.50
2018-05-14T12:47:46.327Z,5.37
2018-05-14T12:50:14.415Z,5.43
2018-05-14T12:52:42.486Z,5.40
2018-05-14T12:55:08.455Z,5.37
2018-05-14T12:57:34.449Z,6.40
2018-05-14T13:00:00.446Z,6.27
2018-05-14T13:02:26.434Z,5.33
2018-05-14T13:04:52.382Z,6.63
2018-05-14T13:07:19.122Z,7.67
2018-05-14T13:09:45.080Z,5.97
2018-05-14T13:12:11.070Z,7.90
2018-05-14T13:14:37.038Z,6.57
2018-05-14T13:17:03.859Z,6.10
2018-05-14T13:19:29.867Z,5.23
2018-05-14T13:21:55.828Z,5.40
2018-05-14T13:24:21.819Z,5.43
2018-05-14T13:26:47.817Z,6.23
2018-05-14T13:29:13.804Z,10.67
2018-05-14T13:31:39.795Z,5.53
2018-05-14T13:34:05.792Z,5.70
2018-05-14T13:36:31.795Z,5.20
2018-05-14T13:38:57.806Z,6.47
2018-05-14T13:41:23.815Z,5.70
2018-05-14T13:43:49.820Z,6.80
2018-05-14T13:46:15.848Z,6.70
2018-05-14T13:48:41.840Z,8.60
2018-05-14T13:51:07.837Z,7.03
2018-05-14T13:53:33.795Z,9.00
2018-05-14T13:55:59.882Z,7.10
2018-05-14T13:58:26.576Z,6.43
2018-05-14T14:00:52.564Z,6.67
2018-05-14T14:03:19.275Z,6.60
2018-05-14T14:05:45.266Z,6.30
2018-05-14T14:08:12.008Z,6.53
2018-05-14T14:10:37.999Z,7.90
2018-05-14T14:13:03.952Z,7.47
2018-05-14T14:15:29.899Z,6.03
2018-05-14T14:17:55.903Z,6.47
2018-05-14T14:20:21.901Z,6.50
2018-05-14T14:22:48.685Z,10.50
2018-05-14T14:25:14.693Z,7.40
2018-05-14T14:27:41.403Z,9.13
2018-05-14T14:30:07.383Z,8.40
2018-05-14T14:32:33.715Z,7.43
2018-05-14T14:35:00.462Z,8.37
2018-05-14T14:37:26.447Z,8.73
2018-05-14T14:39:52.431Z,6.80
2018-05-14T14:42:18.424Z,8.80
2018-05-14T14:44:44.415Z,5.93
2018-05-14T14:47:11.178Z,6.10
2018-05-14T14:49:37.155Z,6.33
2018-05-14T14:52:03.115Z,5.87
2018-05-14T14:54:29.096Z,6.23
2018-05-14T14:56:55.091Z,6.30
2018-05-14T14:59:21.119Z,7.43
2018-05-14T15:01:47.072Z,6.93
2018-05-14T15:04:13.843Z,9.10
2018-05-14T15:06:40.562Z,6.33
2018-05-14T15:09:06.551Z,7.90
2018-05-14T15:11:32.530Z,6.00
2018-05-14T15:13:58.523Z,7.40
2018-05-14T15:16:24.524Z,6.70
2018-05-14T15:18:50.551Z,5.70
2018-05-14T15:21:16.564Z,6.03
2018-05-14T15:23:42.515Z,6.83
2018-05-14T15:26:08.520Z,11.10
2018-05-14T15:28:34.468Z,8.33
2018-05-14T15:31:00.468Z,6.37
2018-05-14T15:33:27.196Z,6.43
2018-05-14T15:35:53.239Z,6.10
2018-05-14T15:38:19.987Z,8.53
2018-05-14T15:40:45.942Z,6.73
2018-05-14T15:43:12.660Z,6.47
2018-05-14T15:45:38.615Z,6.17
2018-05-14T15:48:05.422Z,5.93
2018-05-14T15:50:31.406Z,5.77
2018-05-14T15:52:57.403Z,7.60
2018-05-14T15:55:23.409Z,6.33
2018-05-14T15:57:49.436Z,6.60
2018-05-14T16:00:16.164Z,6.77
2018-05-14T16:02:42.107Z,6.43
2018-05-14T16:05:08.086Z,9.10
2018-05-14T16:07:34.054Z,5.87
2018-05-14T16:10:00.012Z,6.77
2018-05-14T16:12:26.074Z,7.50
2018-05-14T16:14:51.947Z,12.43
2018-05-14T16:17:17.953Z,5.97
2018-05-14T16:19:43.943Z,6.73
2018-05-14T16:22:16.979Z,6.30
2018-05-14T16:24:43.671Z,5.77
2018-05-14T16:27:09.656Z,6.90
2018-05-14T16:29:36.334Z,6.47
2018-05-14T16:32:02.313Z,5.00
2018-05-14T16:34:28.296Z,7.87
2018-05-14T16:36:54.811Z,5.60
2018-05-14T16:39:20.816Z,9.43
2018-05-14T16:41:46.791Z,5.70
2018-05-14T16:44:12.731Z,6.13
2018-05-14T16:46:39.459Z,7.90
2018-05-14T16:49:05.407Z,11.17
2018-05-14T16:51:31.357Z,12.03
2018-05-14T16:53:58.090Z,6.33
2018-05-14T16:56:24.054Z,5.63
2018-05-14T16:58:50.827Z,8.57
2018-05-14T17:01:16.826Z,8.70
2018-05-14T17:03:42.819Z,11.87
2018-05-14T17:06:08.755Z,7.33
2018-05-14T17:08:34.738Z,6.30
2018-05-14T17:11:00.687Z,9.67
2018-05-14T17:13:27.375Z,7.63
2018-05-14T17:15:53.384Z,6.93
2018-05-14T17:18:20.111Z,7.60
2018-05-14T17:20:46.062Z,12.77
2018-05-14T17:23:12.799Z,8.00
2018-05-14T17:25:38.767Z,6.50
2018-05-14T17:28:04.748Z,8.67
2018-05-14T17:30:30.699Z,6.67
2018-05-14T17:32:56.659Z,6.70
2018-05-14T17:35:23.411Z,7.10
2018-05-14T17:37:50.155Z,7.10
2018-05-14T17:40:16.139Z,8.07
2018-05-14T17:42:42.083Z,6.97
2018-05-14T17:45:08.048Z,6.97
2018-05-14T17:47:34.027Z,8.13
2018-05-14T17:49:59.982Z,5.37
2018-05-14T17:52:27.124Z,7.23
2018-05-14T17:54:53.273Z,7.13
2018-05-14T17:57:19.274Z,7.00
2018-05-14T17:59:45.319Z,6.60
2018-05-14T18:02:12.213Z,6.90
2018-05-14T18:04:38.279Z,7.00
2018-05-14T18:07:04.231Z,6.03
2018-05-14T18:09:30.213Z,5.80
2018-05-14T18:11:56.158Z,7.90
2018-05-14T18:14:22.158Z,6.90
2018-05-14T18:16:48.902Z,5.30
2018-05-14T18:19:15.639Z,6.37
2018-05-14T18:21:44.454Z,7.00
2018-05-14T18:24:11.210Z,7.67
2018-05-14T18:26:43.279Z,6.40
2018-05-14T18:29:09.279Z,6.47
2018-05-14T18:31:41.337Z,8.07
2018-05-14T18:34:08.172Z,6.47
2018-05-14T18:36:34.879Z,7.33
2018-05-14T18:39:00.967Z,9.23
2018-05-14T18:41:26.864Z,6.83
2018-05-14T18:43:52.827Z,6.70
2018-05-14T18:46:19.600Z,7.10
2018-05-14T18:48:45.594Z,8.00
2018-05-14T18:51:11.571Z,6.20
2018-05-14T18:53:37.562Z,6.37
2018-05-14T18:56:03.567Z,6.43
2018-05-14T18:58:29.522Z,6.00
2018-05-14T19:00:55.517Z,6.47
2018-05-14T19:03:21.535Z,6.70
2018-05-14T19:05:48.223Z,8.20
2018-05-14T19:08:14.216Z,5.30
2018-05-14T19:10:47.115Z,7.23
2018-05-14T19:13:13.115Z,5.40
2018-05-14T19:15:45.239Z,5.40
2018-05-14T19:18:11.955Z,6.77
2018-05-14T19:20:37.982Z,7.20
2018-05-14T19:23:10.007Z,8.40
2018-05-14T19:25:36.758Z,7.40
2018-05-14T19:28:09.770Z,7.63
2018-05-14T19:30:35.774Z,10.23
2018-05-14T19:33:01.731Z,8.13
2018-05-14T19:35:34.726Z,8.60
2018-05-14T19:38:00.663Z,7.10
2018-05-14T19:40:32.815Z,7.43
2018-05-14T19:42:58.763Z,9.00
2018-05-14T19:45:24.758Z,6.07
2018-05-14T19:47:50.766Z,6.63
2018-05-14T19:50:17.464Z,7.00
2018-05-14T19:52:43.443Z,8.10
2018-05-14T19:55:10.165Z,6.00
2018-05-14T19:57:36.143Z,8.30
2018-05-14T20:00:03.259Z,5.20
2018-05-14T20:02:29.306Z,8.57
2018-05-14T20:04:55.952Z,5.90
2018-05-14T20:07:21.911Z,5.93
2018-05-14T20:09:47.883Z,6.83
2018-05-14T20:12:13.867Z,7.47
2018-05-14T20:14:39.887Z,8.57
2018-05-14T20:17:12.887Z,7.37
2018-05-14T20:19:38.883Z,8.23
2018-05-14T20:22:08.960Z,6.37
2018-05-14T20:24:35.726Z,6.93
2018-05-14T20:27:01.735Z,9.53
2018-05-14T20:29:27.795Z,6.57
2018-05-14T20:31:53.789Z,7.13
2018-05-14T20:34:19.817Z,5.77
2018-05-14T20:36:45.778Z,7.30
2018-05-14T20:39:11.755Z,7.83
2018-05-14T20:41:37.795Z,7.37
2018-05-14T20:44:03.745Z,9.70
2018-05-14T20:46:30.463Z,7.10
2018-05-14T20:48:56.407Z,7.23
2018-05-14T20:51:22.450Z,7.23
2018-05-14T20:53:48.406Z,6.37
2018-05-14T20:56:14.378Z,9.83
2018-05-14T20:58:40.358Z,6.67
2018-05-14T21:01:06.334Z,6.63
2018-05-14T21:03:32.323Z,7.03
2018-05-14T21:05:58.335Z,7.70
2018-05-14T21:08:24.304Z,5.87
2018-05-14T21:10:50.315Z,10.40
2018-05-14T21:13:16.270Z,7.13
2018-05-14T21:15:42.250Z,7.43
2018-05-14T21:18:08.199Z,10.23
2018-05-14T21:20:34.182Z,6.77
2018-05-14T21:23:00.131Z,8.43
2018-05-14T21:25:26.159Z,7.10
2018-05-14T21:27:52.138Z,8.40
2018-05-14T21:30:18.107Z,10.27
2018-05-14T21:32:44.083Z,10.23
2018-05-14T21:35:10.819Z,7.93
2018-05-14T21:37:36.787Z,8.43
2018-05-14T21:40:03.563Z,8.43
2018-05-14T21:42:29.547Z,7.43
2018-05-14T21:44:55.548Z,8.77
2018-05-14T21:47:21.761Z,8.37
2018-05-14T21:49:47.792Z,7.30
2018-05-14T21:52:14.482Z,10.97
2018-05-14T21:54:40.480Z,7.80
2018-05-14T21:57:08.087Z,7.50
2018-05-14T21:59:34.059Z,9.63
2018-05-14T22:02:00.088Z,8.00
2018-05-14T22:04:26.062Z,6.73
2018-05-14T22:06:54.970Z,9.37
2018-05-14T22:09:21.739Z,7.23
2018-05-14T22:11:47.766Z,7.80
2018-05-14T22:14:15.723Z,10.97
2018-05-14T22:16:41.712Z,7.20
2018-05-14T22:19:07.690Z,7.37
2018-05-14T22:21:33.922Z,7.80
2018-05-14T22:24:00.014Z,8.60
2018-05-14T22:26:26.523Z,7.50
2018-05-14T22:28:53.279Z,8.20
2018-05-14T22:31:19.303Z,9.87
2018-05-14T22:33:45.254Z,8.33
2018-05-14T22:36:11.986Z,7.80
2018-05-14T22:38:38.002Z,8.90
2018-05-14T22:41:04.011Z,8.80
2018-05-14T22:43:29.975Z,15.53
2018-05-14T22:45:55.975Z,9.43
2018-05-14T22:48:22.667Z,8.83
2018-05-14T22:50:48.654Z,10.70
2018-05-14T22:53:15.450Z,10.10
2018-05-14T22:55:41.468Z,8.80
2018-05-14T22:58:07.443Z,7.80
2018-05-14T23:00:33.960Z,11.23
2018-05-14T23:02:59.994Z,7.03
2018-05-14T23:05:25.947Z,7.93
2018-05-14T23:07:51.958Z,12.13
2018-05-14T23:10:18.243Z,7.70
2018-05-14T23:12:44.251Z,8.90
2018-05-14T23:15:10.228Z,8.10
2018-05-14T23:17:37.678Z,9.30
2018-05-14T23:20:03.675Z,9.20
2018-05-14T23:22:39.736Z,9.13
2018-05-14T23:25:06.502Z,8.33
2018-05-14T23:27:32.442Z,8.00
2018-05-14T23:29:58.390Z,9.77
2018-05-14T23:32:24.592Z,8.60
2018-05-14T23:34:51.446Z,8.23
2018-05-14T23:37:17.432Z,8.97
2018-05-14T23:39:43.415Z,10.00
2018-05-14T23:42:09.383Z,10.77
2018-05-14T23:44:35.367Z,8.50
2018-05-14T23:47:01.333Z,9.30
2018-05-14T23:49:28.067Z,9.03
2018-05-14T23:51:54.093Z,10.97
2018-05-14T23:54:21.124Z,8.40
2018-05-14T23:56:47.083Z,8.23
2018-05-14T23:59:13.031Z,9.60
